Aérodrome :
LOGIN :

S'inscrire | Disclaimer

   EN    FR    IT 

 










Légende :    VFR   VFR Marginal   IFR   IFR Intensif   IFR Très Intensif
Visi : 
Plafond : 
>= 8 km
>= 3000ft
5 à 8 km
1000 à 3000 ft
1500m à 5 km
500 à 1000 ft
800 à 1500m
200 à 500 ft
< 800m
< 200 ft
Symboles :   Orages  Brouillard  Fortes neiges  Fortes précipitations  Vent > 20 kt
SIGMETs :   Divers  Orages  Givrage  Turbulence  Onde Orograph.  Cendres Volcan.






- Altitude de l'aérodrome : 256 ft
- Code IATA : CFR


LFRK - Caen

DERNIER METAR :
  • 232230Z AUTO 11005KT 070V130 5000 BR OVC007 02/01 Q1025

METARs EXPIRÉS :
  • 232200Z AUTO 11005KT 5000 BR OVC007 02/01 Q1025
  • 232130Z AUTO 11007KT 5000 BR OVC007 02/01 Q1026
  • 232100Z AUTO 12008KT 6000 OVC007 02/01 Q1026 TEMPO 3000 BR BKN003
  • 232030Z AUTO 13009KT 6000 OVC007 02/01 Q1026 TEMPO 3000 BR BKN003
  • 232000Z AUTO 14005KT 5000 BR OVC007 02/01 Q1025 TEMPO BKN003

TAF TAF LFRK
Valide du 23 à 15h jusqu'au 24 à 00h UTC


231400Z 2315/2324 07007KT 6000 SCT010
TEMPO 2315/2324 4000 BR BKN005
PROB40
TEMPO 2320/2324 3000 BR BKN003
Météo : +33 2 31 26 68 11



MET'MAP, la Météo Aéronautique d'un coup d'oeil ! - Copyright ORBIFLY Décembre 2007 - Disclaimer

ORBIFLY MET'MAP TEAM :

Programmation & Développement : Alexandra Zaïnal
Sur une idée originale de : Baudouin d'Aumeries
Assistance à la programmation : Marc-Olivier Méhu
Soutien technique & logistique : Manuel Goepfert

Contact : metmap@orbifly.com




SOURCES & CREDITS :

   NOAA